createdAt,value
2019-03-17T00:00:52.973Z,84.50
2019-03-17T00:03:21.493Z,84.10
2019-03-17T00:05:49.912Z,83.50
2019-03-17T00:08:18.421Z,83.50
2019-03-17T00:10:46.914Z,83.90
2019-03-17T00:13:17.600Z,84.00
2019-03-17T00:15:45.517Z,83.10
2019-03-17T00:18:13.954Z,82.10
2019-03-17T00:21:01.717Z,84.40
2019-03-17T00:23:30.174Z,85.00
2019-03-17T00:25:59.043Z,85.00
2019-03-17T00:28:27.507Z,84.80
2019-03-17T00:30:55.997Z,85.10
2019-03-17T00:33:24.730Z,84.80
2019-03-17T00:35:53.160Z,84.50
2019-03-17T00:38:21.616Z,84.60
2019-03-17T00:40:50.037Z,84.30
2019-03-17T00:43:18.465Z,83.30
2019-03-17T00:45:46.921Z,83.70
2019-03-17T00:48:15.357Z,85.30
2019-03-17T00:50:43.801Z,85.60
2019-03-17T00:53:12.228Z,85.30
2019-03-17T00:55:40.676Z,84.90
2019-03-17T00:58:09.108Z,84.70
2019-03-17T01:00:37.817Z,85.40
2019-03-17T01:03:06.570Z,85.70
2019-03-17T01:05:35.317Z,86.10
2019-03-17T01:08:03.750Z,86.90
2019-03-17T01:10:32.187Z,87.20
2019-03-17T01:13:00.621Z,86.30
2019-03-17T01:15:29.053Z,85.80
2019-03-17T01:17:57.730Z,85.40
2019-03-17T01:20:26.437Z,85.30
2019-03-17T01:22:54.866Z,85.80
2019-03-17T01:25:23.300Z,84.70
2019-03-17T01:27:51.724Z,85.60
2019-03-17T01:30:20.462Z,86.00
2019-03-17T01:32:48.885Z,85.90
2019-03-17T01:35:17.332Z,86.10
2019-03-17T01:37:45.757Z,86.60
2019-03-17T01:40:14.265Z,86.90
2019-03-17T01:42:42.976Z,86.90
2019-03-17T01:45:11.487Z,87.10
2019-03-17T01:47:39.914Z,87.40
2019-03-17T01:50:09.592Z,88.00
2019-03-17T01:52:38.337Z,87.50
2019-03-17T01:55:07.613Z,86.60
2019-03-17T01:57:36.042Z,87.60
2019-03-17T02:00:06.393Z,86.70
2019-03-17T02:02:34.825Z,87.80
2019-03-17T02:05:03.735Z,88.40
2019-03-17T02:07:32.167Z,88.30
2019-03-17T02:10:00.598Z,87.50
2019-03-17T02:12:29.026Z,87.50
2019-03-17T02:14:57.456Z,88.30
2019-03-17T02:17:25.889Z,88.80
2019-03-17T02:19:54.345Z,88.40
2019-03-17T02:22:22.838Z,87.50
2019-03-17T02:24:51.266Z,87.60
2019-03-17T02:27:19.692Z,87.40
2019-03-17T02:29:48.133Z,87.50
2019-03-17T02:32:16.562Z,87.20
2019-03-17T02:34:45.008Z,86.90
2019-03-17T02:37:13.431Z,86.60
2019-03-17T02:39:41.873Z,86.20
2019-03-17T02:42:10.312Z,84.50
2019-03-17T02:44:39.114Z,85.30
2019-03-17T02:47:07.538Z,86.30
2019-03-17T02:49:35.990Z,86.40
2019-03-17T02:52:04.513Z,85.80
2019-03-17T02:54:33.003Z,85.80
2019-03-17T02:57:01.432Z,86.30
2019-03-17T02:59:29.850Z,85.80
2019-03-17T03:01:58.293Z,85.70
2019-03-17T03:04:26.718Z,84.80
2019-03-17T03:07:14.496Z,84.90
2019-03-17T03:09:42.933Z,85.60
2019-03-17T03:12:11.358Z,86.00
2019-03-17T03:14:39.869Z,85.60
2019-03-17T03:17:08.298Z,85.60
2019-03-17T03:19:36.718Z,85.60
2019-03-17T03:22:05.154Z,84.50
2019-03-17T03:24:33.863Z,84.90
2019-03-17T03:29:29.578Z,86.70
2019-03-17T03:31:58.025Z,85.60
2019-03-17T03:34:26.766Z,85.40
2019-03-17T03:36:55.201Z,84.90
2019-03-17T03:39:23.625Z,84.50
2019-03-17T03:41:52.065Z,84.60
2019-03-17T03:44:20.500Z,85.30
2019-03-17T03:46:48.933Z,85.10
2019-03-17T03:49:17.361Z,84.90
2019-03-17T03:51:45.801Z,84.60
2019-03-17T03:54:14.221Z,84.40
2019-03-17T03:56:42.670Z,83.90
2019-03-17T03:59:11.081Z,83.90
2019-03-17T04:01:39.598Z,83.50
2019-03-17T04:04:08.029Z,83.10
2019-03-17T04:06:36.628Z,83.20
2019-03-17T04:09:07.302Z,83.00
2019-03-17T04:11:35.723Z,83.60
2019-03-17T04:14:04.297Z,82.70
2019-03-17T04:16:32.737Z,82.40
2019-03-17T04:19:01.163Z,82.50
2019-03-17T04:21:29.601Z,81.80
2019-03-17T04:23:58.032Z,81.70
2019-03-17T04:26:26.536Z,81.30
2019-03-17T04:28:55.311Z,81.10
2019-03-17T04:31:23.753Z,81.10
2019-03-17T04:33:52.173Z,81.30
2019-03-17T04:36:20.619Z,81.50
2019-03-17T04:38:49.341Z,81.70
2019-03-17T04:41:17.786Z,81.50
2019-03-17T04:43:46.213Z,81.40
2019-03-17T04:46:14.722Z,81.80
2019-03-17T04:48:43.174Z,81.80
2019-03-17T04:51:11.664Z,81.70
2019-03-17T04:53:40.343Z,81.70
2019-03-17T04:56:08.778Z,82.00
2019-03-17T04:58:37.203Z,82.20
2019-03-17T05:01:05.649Z,81.90
2019-03-17T05:03:34.077Z,81.90
2019-03-17T05:06:02.517Z,81.80
2019-03-17T05:08:30.941Z,82.30
2019-03-17T05:10:59.389Z,82.50
2019-03-17T05:13:27.813Z,83.00
2019-03-17T05:15:56.253Z,82.40
2019-03-17T05:18:24.669Z,82.30
2019-03-17T05:20:53.093Z,82.20
2019-03-17T05:23:21.539Z,82.30
2019-03-17T05:25:50.289Z,82.40
2019-03-17T05:28:18.976Z,82.30
2019-03-17T05:30:47.402Z,82.10
2019-03-17T05:33:15.845Z,81.80
2019-03-17T05:35:44.621Z,81.40
2019-03-17T05:38:13.068Z,81.20
2019-03-17T05:40:41.485Z,81.20
2019-03-17T05:43:09.921Z,81.00
2019-03-17T05:45:38.345Z,80.80
2019-03-17T05:48:06.793Z,80.80
2019-03-17T05:50:35.518Z,80.70
2019-03-17T05:53:03.959Z,80.90
2019-03-17T05:55:32.381Z,81.00
2019-03-17T05:58:00.817Z,81.10
2019-03-17T06:00:29.241Z,80.90
2019-03-17T06:02:58.021Z,80.80
2019-03-17T06:05:26.725Z,80.90
2019-03-17T06:07:55.180Z,81.10
2019-03-17T06:10:23.632Z,81.50
2019-03-17T06:12:52.062Z,80.90
2019-03-17T06:15:20.501Z,81.10
2019-03-17T06:17:48.946Z,80.90
2019-03-17T06:20:17.369Z,80.90
2019-03-17T06:22:46.061Z,80.90
2019-03-17T06:25:14.508Z,80.70
2019-03-17T06:27:43.009Z,80.40
2019-03-17T06:30:14.386Z,80.20
2019-03-17T06:32:42.817Z,80.50
2019-03-17T06:35:11.267Z,80.50
2019-03-17T06:37:40.085Z,80.10
2019-03-17T06:40:11.817Z,79.70
2019-03-17T06:42:39.467Z,79.50
2019-03-17T06:45:10.114Z,78.80
2019-03-17T06:47:38.538Z,78.40
2019-03-17T06:50:12.767Z,77.90
2019-03-17T06:52:41.224Z,78.10
2019-03-17T06:55:14.686Z,78.20
2019-03-17T06:57:43.112Z,77.30
2019-03-17T07:00:13.249Z,77.50
2019-03-17T07:02:42.065Z,77.50
2019-03-17T07:05:10.668Z,76.80
2019-03-17T07:07:44.412Z,76.50
2019-03-17T07:10:10.493Z,76.60
2019-03-17T07:12:38.921Z,76.30
2019-03-17T07:15:09.918Z,75.90
2019-03-17T07:17:38.837Z,75.60
2019-03-17T07:20:10.410Z,75.60
2019-03-17T07:22:38.844Z,75.80
2019-03-17T07:25:08.741Z,75.50
2019-03-17T07:27:37.193Z,75.40
2019-03-17T07:30:13.539Z,74.50
2019-03-17T07:32:42.287Z,74.00
2019-03-17T07:35:10.726Z,73.80
2019-03-17T07:37:39.161Z,74.00
2019-03-17T07:40:10.637Z,73.90
2019-03-17T07:42:39.074Z,73.90
2019-03-17T07:45:10.006Z,73.30
2019-03-17T07:47:38.438Z,73.60
2019-03-17T07:50:12.636Z,73.00
2019-03-17T07:52:41.137Z,72.80
2019-03-17T07:55:10.627Z,73.10
2019-03-17T07:57:39.053Z,72.10
2019-03-17T08:00:12.697Z,71.90
2019-03-17T08:02:41.126Z,71.90
2019-03-17T08:05:10.521Z,71.70
2019-03-17T08:07:39.077Z,71.50
2019-03-17T08:10:14.282Z,71.10
2019-03-17T08:12:42.973Z,70.90
2019-03-17T08:15:12.647Z,70.90
2019-03-17T08:17:41.069Z,71.00
2019-03-17T08:20:10.944Z,70.70
2019-03-17T08:22:39.658Z,69.90
2019-03-17T08:25:09.986Z,69.90
2019-03-17T08:27:38.422Z,70.70
2019-03-17T08:30:16.124Z,69.10
2019-03-17T08:32:44.563Z,68.80
2019-03-17T08:35:13.069Z,68.50
2019-03-17T08:37:41.497Z,67.80
2019-03-17T08:40:12.469Z,67.90
2019-03-17T08:42:40.898Z,68.40
2019-03-17T08:45:11.572Z,66.90
2019-03-17T08:47:40.002Z,66.50
2019-03-17T08:50:11.004Z,66.10
2019-03-17T08:52:39.581Z,66.20
2019-03-17T08:55:09.357Z,67.50
2019-03-17T08:57:37.790Z,66.40
2019-03-17T09:00:27.093Z,66.20
2019-03-17T09:02:55.531Z,65.60
2019-03-17T09:05:24.001Z,65.20
2019-03-17T09:07:52.430Z,65.20
2019-03-17T09:10:20.896Z,65.10
2019-03-17T09:12:49.590Z,64.10
2019-03-17T09:15:18.034Z,64.60
2019-03-17T09:17:46.470Z,63.80
2019-03-17T09:20:14.986Z,63.80
2019-03-17T09:22:43.425Z,63.60
2019-03-17T09:25:12.187Z,63.00
2019-03-17T09:27:40.652Z,61.80
2019-03-17T09:30:17.486Z,61.40
2019-03-17T09:32:45.939Z,62.60
2019-03-17T09:35:14.380Z,63.80
2019-03-17T09:37:42.814Z,62.30
2019-03-17T09:40:18.658Z,63.00
2019-03-17T09:42:47.109Z,63.20
2019-03-17T09:45:15.995Z,62.40
2019-03-17T09:47:44.425Z,61.70
2019-03-17T09:50:17.039Z,63.10
2019-03-17T09:52:45.473Z,61.00
2019-03-17T09:55:13.933Z,61.50
2019-03-17T09:57:42.647Z,60.70
2019-03-17T10:00:18.755Z,60.80
2019-03-17T10:02:47.187Z,61.40
2019-03-17T10:05:15.695Z,60.50
2019-03-17T10:07:44.253Z,59.90
2019-03-17T10:10:17.224Z,60.30
2019-03-17T10:12:45.656Z,58.80
2019-03-17T10:15:15.557Z,59.70
2019-03-17T10:17:43.990Z,58.30
2019-03-17T10:20:17.414Z,57.60
2019-03-17T10:22:45.847Z,58.00
2019-03-17T10:25:14.292Z,55.90
2019-03-17T10:27:42.737Z,57.00
2019-03-17T10:30:19.855Z,56.80
2019-03-17T10:32:48.292Z,57.40
2019-03-17T10:35:16.799Z,57.20
2019-03-17T10:37:45.265Z,56.20
2019-03-17T10:40:15.752Z,55.70
2019-03-17T10:42:44.251Z,53.90
2019-03-17T10:45:13.517Z,55.70
2019-03-17T10:47:41.948Z,56.70
2019-03-17T10:50:12.949Z,55.00
2019-03-17T10:52:41.474Z,50.50
2019-03-17T10:55:10.801Z,52.10
2019-03-17T10:57:39.245Z,50.90
2019-03-17T11:00:13.631Z,50.90
2019-03-17T11:02:42.128Z,49.10
2019-03-17T11:05:10.809Z,49.10
2019-03-17T11:07:39.241Z,47.50
2019-03-17T11:10:10.476Z,47.00
2019-03-17T11:12:38.930Z,47.10
2019-03-17T11:15:10.434Z,48.90
2019-03-17T11:17:38.884Z,48.30
2019-03-17T11:20:10.404Z,49.70
2019-03-17T11:22:38.849Z,47.60
2019-03-17T11:25:14.138Z,48.50
2019-03-17T11:27:42.649Z,46.20
2019-03-17T11:30:18.144Z,45.80
2019-03-17T11:32:46.586Z,47.60
2019-03-17T11:35:15.156Z,46.70
2019-03-17T11:37:43.619Z,45.20
2019-03-17T11:40:20.073Z,42.70
2019-03-17T11:42:50.085Z,41.20
2019-03-17T11:45:18.897Z,38.70
2019-03-17T11:48:06.753Z,38.90
2019-03-17T11:50:35.181Z,38.40
2019-03-17T11:53:03.631Z,38.70
2019-03-17T11:55:32.084Z,32.50
2019-03-17T11:58:00.589Z,30.20
2019-03-17T12:00:29.014Z,31.30
2019-03-17T12:02:57.464Z,32.60
2019-03-17T12:05:25.894Z,35.20
2019-03-17T12:07:54.342Z,32.70
2019-03-17T12:10:23.509Z,34.90
2019-03-17T12:12:52.023Z,32.20
2019-03-17T12:15:25.022Z,29.70
2019-03-17T12:17:53.819Z,34.60
2019-03-17T12:20:22.319Z,34.00
2019-03-17T12:22:50.761Z,36.00
2019-03-17T12:25:19.610Z,35.40
2019-03-17T12:27:48.063Z,31.90
2019-03-17T12:30:20.898Z,33.70
2019-03-17T12:32:50.288Z,36.20
2019-03-17T12:35:18.955Z,31.50
2019-03-17T12:37:47.457Z,32.70
2019-03-17T12:40:16.025Z,34.00
2019-03-17T12:42:44.487Z,34.30
2019-03-17T12:45:13.553Z,35.20
2019-03-17T12:47:42.069Z,31.50
2019-03-17T12:50:19.213Z,31.50
2019-03-17T12:52:47.688Z,32.70
2019-03-17T12:55:16.421Z,34.00
2019-03-17T12:57:44.938Z,33.80
2019-03-17T13:00:21.528Z,30.90
2019-03-17T13:02:50.360Z,29.30
2019-03-17T13:05:18.785Z,30.90
2019-03-17T13:07:47.315Z,33.20
2019-03-17T13:10:18.556Z,34.70
2019-03-17T13:12:47.017Z,35.90
2019-03-17T13:15:15.442Z,34.50
2019-03-17T13:17:43.964Z,33.50
2019-03-17T13:20:15.067Z,31.00
2019-03-17T13:22:43.577Z,31.80
2019-03-17T13:25:12.345Z,32.10
2019-03-17T13:27:40.873Z,33.40
2019-03-17T13:30:14.497Z,30.30
2019-03-17T13:32:42.938Z,29.00
2019-03-17T13:35:11.460Z,31.70
2019-03-17T13:37:39.911Z,30.90
2019-03-17T13:40:28.154Z,34.00
2019-03-17T13:42:46.742Z,34.20
2019-03-17T13:45:15.629Z,34.40
2019-03-17T13:47:44.084Z,33.40
2019-03-17T13:50:17.634Z,32.70
2019-03-17T13:52:46.082Z,33.50
2019-03-17T13:55:14.589Z,32.90
2019-03-17T13:57:45.950Z,30.40
2019-03-17T14:00:15.321Z,34.30
2019-03-17T14:02:43.785Z,30.70
2019-03-17T14:05:12.746Z,33.50
2019-03-17T14:07:41.207Z,29.20
2019-03-17T14:10:14.927Z,31.80
2019-03-17T14:12:46.127Z,31.10
2019-03-17T14:15:15.592Z,30.70
2019-03-17T14:17:44.186Z,30.80
2019-03-17T14:20:15.046Z,31.30
2019-03-17T14:22:43.485Z,30.50
2019-03-17T14:25:21.026Z,32.70
2019-03-17T14:27:49.469Z,30.00
2019-03-17T14:30:17.960Z,32.50
2019-03-17T14:32:46.425Z,33.20
2019-03-17T14:35:14.855Z,33.80
2019-03-17T14:37:43.308Z,33.70
2019-03-17T14:40:14.100Z,33.20
2019-03-17T14:42:42.966Z,33.40
2019-03-17T14:45:16.503Z,29.00
2019-03-17T14:47:45.488Z,29.60
2019-03-17T14:50:16.653Z,29.80
2019-03-17T14:52:45.185Z,29.90
2019-03-17T14:55:13.658Z,33.20
2019-03-17T14:57:42.113Z,32.80
2019-03-17T15:00:16.313Z,31.00
2019-03-17T15:02:45.264Z,35.10
2019-03-17T15:05:13.774Z,31.60
2019-03-17T15:07:42.274Z,29.90
2019-03-17T15:10:18.409Z,29.00
2019-03-17T15:12:46.930Z,28.90
2019-03-17T15:15:16.976Z,29.60
2019-03-17T15:17:45.477Z,29.40
2019-03-17T15:20:15.762Z,28.90
2019-03-17T15:22:44.445Z,29.90
2019-03-17T15:25:13.430Z,30.40
2019-03-17T15:27:42.149Z,30.30
2019-03-17T15:30:13.698Z,31.20
2019-03-17T15:32:41.697Z,32.10
2019-03-17T15:35:12.745Z,29.90
2019-03-17T15:37:41.176Z,30.20
2019-03-17T15:40:16.980Z,33.20
2019-03-17T15:42:45.417Z,33.20
2019-03-17T15:45:24.695Z,32.00
2019-03-17T15:47:53.132Z,34.20
2019-03-17T15:50:22.792Z,31.70
2019-03-17T15:52:51.651Z,33.30
2019-03-17T15:55:20.092Z,32.90
2019-03-17T15:57:58.286Z,32.60
2019-03-17T16:00:27.196Z,31.70
2019-03-17T16:02:55.822Z,31.10
2019-03-17T16:05:24.448Z,31.90
2019-03-17T16:07:52.890Z,31.70
2019-03-17T16:10:29.686Z,31.50
2019-03-17T16:13:01.225Z,31.30
2019-03-17T16:15:29.657Z,31.60
2019-03-17T16:17:58.099Z,32.30
2019-03-17T16:20:27.381Z,32.70
2019-03-17T16:22:55.885Z,33.30
2019-03-17T16:25:32.245Z,34.00
2019-03-17T16:28:00.673Z,33.50
2019-03-17T16:30:31.123Z,34.00
2019-03-17T16:32:59.621Z,34.20
2019-03-17T16:35:28.066Z,35.60
2019-03-17T16:37:56.813Z,33.20
2019-03-17T16:40:32.564Z,34.90
2019-03-17T16:43:00.999Z,34.70
2019-03-17T16:45:29.514Z,35.10
2019-03-17T16:47:58.013Z,35.30
2019-03-17T16:50:26.590Z,35.90
2019-03-17T16:52:55.029Z,36.40
2019-03-17T16:55:23.469Z,36.00
2019-03-17T16:57:51.993Z,36.70
2019-03-17T17:00:24.565Z,36.90
2019-03-17T17:02:53.499Z,37.40
2019-03-17T17:05:23.270Z,38.50
2019-03-17T17:07:52.607Z,38.60
2019-03-17T17:10:26.487Z,38.10
2019-03-17T17:12:55.046Z,38.30
2019-03-17T17:15:26.122Z,38.80
2019-03-17T17:17:54.557Z,37.90
2019-03-17T17:20:31.675Z,38.20
2019-03-17T17:23:00.307Z,38.70
2019-03-17T17:25:29.094Z,39.30
2019-03-17T17:27:57.845Z,39.60
2019-03-17T17:30:26.370Z,39.10
2019-03-17T17:32:54.816Z,39.50
2019-03-17T17:35:23.373Z,39.40
2019-03-17T17:37:52.311Z,39.60
2019-03-17T17:40:24.701Z,40.10
2019-03-17T17:42:53.235Z,40.00
2019-03-17T17:45:22.765Z,40.20
2019-03-17T17:47:51.372Z,40.80
2019-03-17T17:50:22.197Z,40.70
2019-03-17T17:52:50.658Z,41.10
2019-03-17T17:55:19.230Z,41.50
2019-03-17T17:57:47.970Z,42.00
2019-03-17T18:00:20.510Z,41.90
2019-03-17T18:02:48.936Z,42.30
2019-03-17T18:05:17.503Z,42.70
2019-03-17T18:07:46.581Z,43.00
2019-03-17T18:10:16.195Z,43.20
2019-03-17T18:12:44.698Z,43.00
2019-03-17T18:15:19.146Z,43.10
2019-03-17T18:17:47.990Z,43.30
2019-03-17T18:20:16.434Z,43.20
2019-03-17T18:22:44.865Z,43.60
2019-03-17T18:25:22.629Z,44.00
2019-03-17T18:27:51.518Z,43.80
2019-03-17T18:30:24.093Z,44.00
2019-03-17T18:32:52.529Z,44.30
2019-03-17T18:35:21.199Z,44.30
2019-03-17T18:37:51.228Z,44.20
2019-03-17T18:40:23.110Z,46.90
2019-03-17T18:42:51.860Z,49.20
2019-03-17T18:45:33.890Z,51.30
2019-03-17T18:48:02.389Z,53.10
2019-03-17T18:50:30.840Z,55.70
2019-03-17T18:52:59.453Z,57.80
2019-03-17T18:55:28.138Z,59.80
2019-03-17T18:57:56.605Z,61.30
2019-03-17T19:00:26.012Z,63.80
2019-03-17T19:02:54.445Z,62.50
2019-03-17T19:05:23.030Z,66.50
2019-03-17T19:07:51.925Z,69.40
2019-03-17T19:10:20.914Z,72.80
2019-03-17T19:12:49.644Z,75.80
2019-03-17T19:15:22.935Z,77.60
2019-03-17T19:17:51.958Z,78.40
2019-03-17T19:20:21.385Z,80.80
2019-03-17T19:22:50.170Z,81.80
2019-03-17T19:25:20.727Z,82.50
2019-03-17T19:27:50.035Z,83.30
2019-03-17T19:30:20.182Z,84.70
2019-03-17T19:32:48.686Z,86.40
2019-03-17T19:35:17.268Z,87.20
2019-03-17T19:37:45.708Z,87.00
2019-03-17T19:40:42.305Z,88.60
2019-03-17T19:43:10.735Z,88.40
2019-03-17T19:45:39.430Z,89.70
2019-03-17T19:48:07.862Z,90.10
2019-03-17T19:50:36.640Z,89.70
2019-03-17T19:53:05.074Z,89.80
2019-03-17T19:55:33.814Z,90.50
2019-03-17T19:58:02.239Z,90.00
2019-03-17T20:00:30.678Z,90.40
2019-03-17T20:02:59.113Z,90.80
2019-03-17T20:05:27.561Z,91.10
2019-03-17T20:07:55.990Z,91.50
2019-03-17T20:10:28.546Z,91.60
2019-03-17T20:12:57.122Z,91.70
2019-03-17T20:15:25.562Z,91.70
2019-03-17T20:17:53.999Z,92.10
2019-03-17T20:20:22.514Z,92.40
2019-03-17T20:22:50.941Z,92.60
2019-03-17T20:25:19.453Z,92.80
2019-03-17T20:27:47.891Z,91.70
2019-03-17T20:30:20.134Z,91.80
2019-03-17T20:32:48.558Z,91.60
2019-03-17T20:35:16.999Z,91.70
2019-03-17T20:37:45.496Z,92.00
2019-03-17T20:40:17.525Z,92.30
2019-03-17T20:42:45.957Z,92.00
2019-03-17T20:45:15.742Z,91.90
2019-03-17T20:47:44.250Z,92.10
2019-03-17T20:50:14.551Z,92.10
2019-03-17T20:52:43.001Z,91.90
2019-03-17T20:55:12.636Z,91.40
2019-03-17T20:57:41.073Z,91.60
2019-03-17T21:00:15.294Z,91.30
2019-03-17T21:02:43.733Z,91.60
2019-03-17T21:05:31.541Z,91.00
2019-03-17T21:07:59.966Z,91.60
2019-03-17T21:10:28.425Z,91.50
2019-03-17T21:12:57.218Z,91.30
2019-03-17T21:15:25.673Z,91.70
2019-03-17T21:17:54.105Z,91.80
2019-03-17T21:20:24.929Z,92.20
2019-03-17T21:22:53.684Z,91.90
2019-03-17T21:25:22.142Z,92.00
2019-03-17T21:27:50.561Z,92.30
2019-03-17T21:30:23.306Z,92.50
2019-03-17T21:32:51.812Z,92.30
2019-03-17T21:35:20.302Z,92.40
2019-03-17T21:37:48.754Z,91.90
2019-03-17T21:40:17.191Z,92.40
2019-03-17T21:42:45.638Z,92.10
2019-03-17T21:45:14.537Z,91.80
2019-03-17T21:47:42.984Z,91.60
2019-03-17T21:50:16.333Z,91.50
2019-03-17T21:52:44.773Z,92.00
2019-03-17T21:55:13.994Z,92.20
2019-03-17T21:57:42.607Z,92.10
2019-03-17T22:00:13.745Z,91.90
2019-03-17T22:02:42.188Z,91.90
2019-03-17T22:05:12.263Z,92.10
2019-03-17T22:07:49.482Z,92.20
2019-03-17T22:10:14.102Z,92.20
2019-03-17T22:12:42.598Z,91.90
2019-03-17T22:15:15.124Z,91.90
2019-03-17T22:17:43.633Z,92.20
2019-03-17T22:20:15.158Z,92.50
2019-03-17T22:22:42.889Z,92.30
2019-03-17T22:25:12.448Z,92.50
2019-03-17T22:27:40.922Z,92.30
2019-03-17T22:30:21.856Z,92.50
2019-03-17T22:32:50.290Z,92.30
2019-03-17T22:35:18.825Z,92.30
2019-03-17T22:37:47.324Z,91.50
2019-03-17T22:40:16.889Z,91.80
2019-03-17T22:42:46.001Z,91.40
2019-03-17T22:45:35.322Z,91.50
2019-03-17T22:48:03.757Z,91.80
2019-03-17T22:50:32.236Z,91.80
2019-03-17T22:53:00.689Z,91.80
2019-03-17T22:55:29.193Z,91.60
2019-03-17T22:57:59.242Z,91.60
2019-03-17T23:00:35.813Z,91.50
2019-03-17T23:03:05.081Z,91.20
2019-03-17T23:05:33.950Z,91.20
2019-03-17T23:08:02.721Z,91.20
2019-03-17T23:10:31.193Z,90.80
2019-03-17T23:12:59.901Z,91.20
2019-03-17T23:15:28.325Z,90.70
2019-03-17T23:17:56.833Z,90.60
2019-03-17T23:20:25.265Z,90.50
2019-03-17T23:22:53.742Z,90.50
2019-03-17T23:25:22.248Z,90.60
2019-03-17T23:27:50.998Z,90.90
2019-03-17T23:30:20.642Z,91.00
2019-03-17T23:32:49.686Z,90.70
2019-03-17T23:35:18.346Z,90.90
2019-03-17T23:37:46.904Z,91.00
2019-03-17T23:40:17.432Z,90.90
2019-03-17T23:42:45.872Z,91.20
2019-03-17T23:45:14.743Z,91.00
2019-03-17T23:47:43.250Z,90.50
2019-03-17T23:50:13.017Z,90.10
2019-03-17T23:52:41.523Z,90.60
2019-03-17T23:55:13.438Z,90.80
2019-03-17T23:57:42.396Z,90.90
